Anaconda, MT

7:25 AM MDT on July 24, 2016 (GMT -0600)
West 3rd | | Change Station

Elev 5302 ft 46.13 °N, 112.96 °W | Updated 4 seconds ago

Clear
Clear
49.3 °F
Feels Like 48 °F
N
4.7
Wind Variable Wind from NNE
Gusts 5.3 mph

Today
High -- | Low -- °F
--% Chance of Precip.
Yesterday
High -- | Low -- °F
Precip. -- in
Pressure 30.15 in
Visibility 10.0 miles
Clouds Clear
Windchill 48 °F
Dew Point 40 °F
Humidity 69%
Rainfall 0.00 in
Snow Depth Not available.
6:05 AM 9:11 PM
Waning Gibbous, 76% visible
METAR KBTM 241253Z AUTO 00000KT 10SM CLR 06/01 A3025 RMK AO2 SLP210 T00560006 $
Pressure 30.15 in
Visibility 10.0 miles
Clouds Clear
Windchill 48 °F
Dew Point 40 °F
Humidity 69%
Rainfall 0.00 in
Snow Depth Not available.
6:05 AM 9:11 PM
Waning Gibbous, 76% visible
METAR KBTM 241253Z AUTO 00000KT 10SM CLR 06/01 A3025 RMK AO2 SLP210 T00560006 $

10-Day Weather Forecast

Almanac

Astronomy

Jul. 24, 2016 Rise Set
Actual Time
Civil Twilight
Nautical Twilight
Astronomical Twilight
Moon
Length of Visible Light
Length of Day
Tomorrow will be .
, % of the Moon is Illuminated

Today's Extremes

State Highs State Lows

Community

WunderPhotos

Upload Photos

1,927,057 photos uploaded!

WunderBlog® & News

Nearby

Air Quality

  Air Quality AQ Index Pollutant
Not available.

Snow Depth

Station Depth Elevation

Earthquake Activity

City Distance Mag. Time & Date
Minimum magnitude displayed is 2.5.

Coastal Water Temperatures

Place Temperature

Stations

Nearby Weather Stations

Station Location Temp. Windchill Dew Point Humidity Wind Precip. Elev Updated Type
                   

Watches & Warnings

There are currently no watches in effect.